Anjeliersgracht — PCGQ — position and weather

sailwx.info

Track history (hours):
 
Tides and Currents Weather Stations Pressure Air Temp Water Temp Dewpoint Dewpoint Depression Visibility Wind Speed Wind Dir Waves Ship Positions

Anjeliersgracht

Last reported at 2015-Aug-29 09:33 UTC. Time now 2015-Sep-05 03:47 UTC.
Position N 57°27' E 017°48'.

Length 130 m; beam 19 m; draft 9 m.

Type: Cargo ship. MMSI: 244716000.

Date/timePositionNaut miles runAvg speedWind from/ knotsBaromVisibWave heightAir tempDewpointWater temp
2015-Aug-29 09:33N 57°27' E 017°48'1313.5
2015-Aug-29 08:33N 57°15' E 017°38'1413.4
2015-Aug-29 07:33N 57°02' E 017°29'11212.4
2015-Aug-28 22:32N 55°36' E 015°20'1313.3
2015-Aug-28 21:31N 55°30' E 014°59'1313.4
2015-Aug-28 20:33N 55°23' E 014°39'1313.3
2015-Aug-28 19:33N 55°13' E 014°25'1313.4
2015-Aug-28 18:33N 55°02' E 014°10'1513.1
2015-Aug-28 17:27N 54°57' E 013°47'1213.1
2015-Aug-28 16:31N 54°53' E 013°26'1313.5
2015-Aug-28 15:32N 54°49' E 013°05'4013.1
2015-Aug-28 12:30N 54°25' E 012°10'1313.5
2015-Aug-28 11:33N 54°24' E 011°48'1313.3
2015-Aug-28 10:33N 54°30' E 011°28'1414.0
2015-Aug-28 09:33N 54°35' E 011°05'1413.6
2015-Aug-28 08:34N 54°34' E 010°42'1312.8
2015-Aug-28 07:33N 54°30' E 010°21'1110.7
2015-Aug-28 06:33N 54°22' E 010°09'1 1.4
2015-Aug-28 05:33N 54°22' E 010°06'5 5.5
2015-Aug-28 04:34N 54°20' E 009°57'4 3.7
2015-Aug-28 03:33N 54°22' E 009°52'6 5.7
2015-Aug-28 02:33N 54°19' E 009°43'5 4.9
2015-Aug-28 01:34N 54°15' E 009°37'6 6.1
2015-Aug-28 00:33N 54°11' E 009°30'8 6.3
2015-Aug-27 23:14N 54°05' E 009°20'4 5.3
2015-Aug-27 22:33N 54°02' E 009°18'6 5.9
2015-Aug-27 21:33N 53°57' E 009°14'1 0.9
2015-Aug-27 20:33N 53°56' E 009°13'3 3.5
2015-Aug-27 19:33N 53°54' E 009°09'7 6.9
2015-Aug-27 18:33N 53°51' E 008°58'1111.1
2015-Aug-27 17:33N 53°55' E 008°40'1313.0
2015-Aug-27 16:33N 53°59' E 008°20'1413.6
2015-Aug-27 15:33N 53°58' E 007°56'1413.5
2015-Aug-27 14:33N 53°54' E 007°34'1313.1
2015-Aug-27 13:33N 53°51' E 007°13'2912.8
2015-Aug-27 11:16N 53°43' E 006°25'6 8.7
2015-Aug-27 10:33N 53°37' E 006°27'1414.3
2015-Aug-27 09:33N 53°30' E 006°48'1313.0
2015-Aug-27 08:34N 53°19' E 007°01'6 6.2
2015-Aug-27 07:33N 53°20' E 007°11'0 0.3
2015-Aug-27 06:31N 53°20' E 007°12'0 0.0
2015-Aug-27 05:31N 53°20' E 007°12'0 0.0
2015-Aug-27 04:31N 53°20' E 007°12'0 0.0
2015-Aug-27 03:31N 53°20' E 007°12'0 0.0
2015-Aug-27 02:25N 53°20' E 007°12'0 0.0
2015-Aug-27 01:31N 53°20' E 007°12'0 0.0
2015-Aug-27 00:31N 53°20' E 007°12'0 0.0
2015-Aug-26 23:31N 53°20' E 007°12'0 0.0
2015-Aug-26 22:31N 53°20' E 007°12'0 0.0
2015-Aug-26 21:31N 53°20' E 007°12'0 0.0
2015-Aug-26 20:31N 53°20' E 007°12'0 0.0
2015-Aug-26 19:31N 53°20' E 007°12'0 0.0
2015-Aug-26 18:31N 53°20' E 007°12'0 0.0
2015-Aug-26 17:31N 53°20' E 007°12'0 0.0
2015-Aug-26 16:31N 53°20' E 007°12'0 0.0
2015-Aug-26 15:31N 53°20' E 007°12'0 0.0
2015-Aug-26 14:31N 53°20' E 007°12'0 0.0
2015-Aug-26 13:22N 53°20' E 007°12'0 0.0
2015-Aug-26 12:28N 53°20' E 007°12'0 0.0
2015-Aug-26 11:31N 53°20' E 007°12'0 0.0
2015-Aug-26 10:28N 53°20' E 007°12'0 0.0
2015-Aug-26 09:25N 53°20' E 007°12'0 0.0
2015-Aug-26 08:31N 53°20' E 007°12'0 0.4
2015-Aug-26 07:31N 53°20' E 007°11'3 3.6
2015-Aug-26 06:34N 53°20' E 007°05'1211.9
2015-Aug-26 05:33N 53°28' E 006°51'1414.2
2015-Aug-26 04:33N 53°37' E 006°32'1211.7
2015-Aug-26 03:33N 53°39' E 006°13'1210.0
2015-Aug-26 02:23N 53°40' E 005°53'4 4.9
2015-Aug-26 01:33N 53°44' E 005°56'8 7.6
2015-Aug-26 00:30N 53°46' E 006°09'6 5.9
2015-Aug-25 23:33N 53°42' E 006°02'9 8.9
2015-Aug-25 22:33N 53°39' E 005°48'9 8.6
2015-Aug-25 21:34N 53°37' E 005°34'9 8.5
2015-Aug-25 20:33N 53°33' E 005°21'9 8.7
2015-Aug-25 19:34N 53°30' E 005°07'9 8.8
2015-Aug-25 18:33N 53°26' E 004°54'9 8.6
2015-Aug-25 17:34N 53°22' E 004°42'15011.5
2015-Aug-25 04:33N 51°25' E 002°08'1110.5
2015-Aug-25 03:33N 51°15' E 002°05'1010.4
2015-Aug-25 02:33N 51°09' E 001°51'1111.1
2015-Aug-25 01:33N 51°01' E 001°39'  
2015-Aug-22 03:33N 39°19' W 009°52'1313.2
2015-Aug-22 02:33N 39°06' W 009°52'1313.2
2015-Aug-22 01:33N 38°53' W 009°52'1313.2
2015-Aug-22 00:33N 38°40' W 009°52'1313.1
2015-Aug-21 23:33N 38°27' W 009°47'1313.3
2015-Aug-21 22:33N 38°14' W 009°43'1413.0
2015-Aug-21 21:28N 38°00' W 009°39'1212.2
2015-Aug-21 20:28N 37°49' W 009°35'1112.2
2015-Aug-21 19:33N 37°38' W 009°32'1312.7
2015-Aug-21 18:33N 37°25' W 009°29'1313.3
2015-Aug-21 17:33N 37°12' W 009°25'1313.3
2015-Aug-21 16:33N 36°59' W 009°21'6712.7
2015-Aug-21 11:16N 36°28' W 008°06'1113.5
2015-Aug-21 10:27N 36°26' W 007°53'38913.0
2015-Aug-20 04:31N 36°43' E 000°11'1313.2
2015-Aug-20 03:32N 36°45' E 000°27'1613.1
2015-Aug-20 02:20N 36°47' E 000°47'  
Track history (hours):
 
Tides and Currents Weather Stations Pressure Air Temp Water Temp Dewpoint Dewpoint Depression Visibility Wind Speed Wind Dir Waves Ship Positions

Anjeliersgracht

Last reported at 2015-Aug-29 09:33 UTC. Time now 2015-Sep-05 03:47 UTC.
Position N 57°27' E 017°48'.

Length 130 m; beam 19 m; draft 9 m.

Type: Cargo ship. MMSI: 244716000.

Date/timePositionNaut miles runAvg speedWind from/ knotsBaromVisibWave heightAir tempDewpointWater temp
2015-Aug-29 09:33N 57°27' E 017°48'1313.5
2015-Aug-29 08:33N 57°15' E 017°38'1413.4
2015-Aug-29 07:33N 57°02' E 017°29'11212.4
2015-Aug-28 22:32N 55°36' E 015°20'1313.3
2015-Aug-28 21:31N 55°30' E 014°59'1313.4
2015-Aug-28 20:33N 55°23' E 014°39'1313.3
2015-Aug-28 19:33N 55°13' E 014°25'1313.4
2015-Aug-28 18:33N 55°02' E 014°10'1513.1
2015-Aug-28 17:27N 54°57' E 013°47'1213.1
2015-Aug-28 16:31N 54°53' E 013°26'1313.5
2015-Aug-28 15:32N 54°49' E 013°05'4013.1
2015-Aug-28 12:30N 54°25' E 012°10'1313.5
2015-Aug-28 11:33N 54°24' E 011°48'1313.3
2015-Aug-28 10:33N 54°30' E 011°28'1414.0
2015-Aug-28 09:33N 54°35' E 011°05'1413.6
2015-Aug-28 08:34N 54°34' E 010°42'1312.8
2015-Aug-28 07:33N 54°30' E 010°21'1110.7
2015-Aug-28 06:33N 54°22' E 010°09'1 1.4
2015-Aug-28 05:33N 54°22' E 010°06'5 5.5
2015-Aug-28 04:34N 54°20' E 009°57'4 3.7
2015-Aug-28 03:33N 54°22' E 009°52'6 5.7
2015-Aug-28 02:33N 54°19' E 009°43'5 4.9
2015-Aug-28 01:34N 54°15' E 009°37'6 6.1
2015-Aug-28 00:33N 54°11' E 009°30'8 6.3
2015-Aug-27 23:14N 54°05' E 009°20'4 5.3
2015-Aug-27 22:33N 54°02' E 009°18'6 5.9
2015-Aug-27 21:33N 53°57' E 009°14'1 0.9
2015-Aug-27 20:33N 53°56' E 009°13'3 3.5
2015-Aug-27 19:33N 53°54' E 009°09'7 6.9
2015-Aug-27 18:33N 53°51' E 008°58'1111.1
2015-Aug-27 17:33N 53°55' E 008°40'1313.0
2015-Aug-27 16:33N 53°59' E 008°20'1413.6
2015-Aug-27 15:33N 53°58' E 007°56'1413.5
2015-Aug-27 14:33N 53°54' E 007°34'1313.1
2015-Aug-27 13:33N 53°51' E 007°13'2912.8
2015-Aug-27 11:16N 53°43' E 006°25'6 8.7
2015-Aug-27 10:33N 53°37' E 006°27'1414.3
2015-Aug-27 09:33N 53°30' E 006°48'1313.0
2015-Aug-27 08:34N 53°19' E 007°01'6 6.2
2015-Aug-27 07:33N 53°20' E 007°11'0 0.3
2015-Aug-27 06:31N 53°20' E 007°12'0 0.0
2015-Aug-27 05:31N 53°20' E 007°12'0 0.0
2015-Aug-27 04:31N 53°20' E 007°12'0 0.0
2015-Aug-27 03:31N 53°20' E 007°12'0 0.0
2015-Aug-27 02:25N 53°20' E 007°12'0 0.0
2015-Aug-27 01:31N 53°20' E 007°12'0 0.0
2015-Aug-27 00:31N 53°20' E 007°12'0 0.0
2015-Aug-26 23:31N 53°20' E 007°12'0 0.0
2015-Aug-26 22:31N 53°20' E 007°12'0 0.0
2015-Aug-26 21:31N 53°20' E 007°12'0 0.0
2015-Aug-26 20:31N 53°20' E 007°12'0 0.0
2015-Aug-26 19:31N 53°20' E 007°12'0 0.0
2015-Aug-26 18:31N 53°20' E 007°12'0 0.0
2015-Aug-26 17:31N 53°20' E 007°12'0 0.0
2015-Aug-26 16:31N 53°20' E 007°12'0 0.0
2015-Aug-26 15:31N 53°20' E 007°12'0 0.0
2015-Aug-26 14:31N 53°20' E 007°12'0 0.0
2015-Aug-26 13:22N 53°20' E 007°12'0 0.0
2015-Aug-26 12:28N 53°20' E 007°12'0 0.0
2015-Aug-26 11:31N 53°20' E 007°12'0 0.0
2015-Aug-26 10:28N 53°20' E 007°12'0 0.0
2015-Aug-26 09:25N 53°20' E 007°12'0 0.0
2015-Aug-26 08:31N 53°20' E 007°12'0 0.4
2015-Aug-26 07:31N 53°20' E 007°11'3 3.6
2015-Aug-26 06:34N 53°20' E 007°05'1211.9
2015-Aug-26 05:33N 53°28' E 006°51'1414.2
2015-Aug-26 04:33N 53°37' E 006°32'1211.7
2015-Aug-26 03:33N 53°39' E 006°13'1210.0
2015-Aug-26 02:23N 53°40' E 005°53'4 4.9
2015-Aug-26 01:33N 53°44' E 005°56'8 7.6
2015-Aug-26 00:30N 53°46' E 006°09'6 5.9
2015-Aug-25 23:33N 53°42' E 006°02'9 8.9
2015-Aug-25 22:33N 53°39' E 005°48'9 8.6
2015-Aug-25 21:34N 53°37' E 005°34'9 8.5
2015-Aug-25 20:33N 53°33' E 005°21'9 8.7
2015-Aug-25 19:34N 53°30' E 005°07'9 8.8
2015-Aug-25 18:33N 53°26' E 004°54'9 8.6
2015-Aug-25 17:34N 53°22' E 004°42'15011.5
2015-Aug-25 04:33N 51°25' E 002°08'1110.5
2015-Aug-25 03:33N 51°15' E 002°05'1010.4
2015-Aug-25 02:33N 51°09' E 001°51'1111.1
2015-Aug-25 01:33N 51°01' E 001°39'  
2015-Aug-22 03:33N 39°19' W 009°52'1313.2
2015-Aug-22 02:33N 39°06' W 009°52'1313.2
2015-Aug-22 01:33N 38°53' W 009°52'1313.2
2015-Aug-22 00:33N 38°40' W 009°52'1313.1
2015-Aug-21 23:33N 38°27' W 009°47'1313.3
2015-Aug-21 22:33N 38°14' W 009°43'1413.0
2015-Aug-21 21:28N 38°00' W 009°39'1212.2
2015-Aug-21 20:28N 37°49' W 009°35'1112.2
2015-Aug-21 19:33N 37°38' W 009°32'1312.7
2015-Aug-21 18:33N 37°25' W 009°29'1313.3
2015-Aug-21 17:33N 37°12' W 009°25'1313.3
2015-Aug-21 16:33N 36°59' W 009°21'6712.7
2015-Aug-21 11:16N 36°28' W 008°06'1113.5
2015-Aug-21 10:27N 36°26' W 007°53'38913.0
2015-Aug-20 04:31N 36°43' E 000°11'1313.2
2015-Aug-20 03:32N 36°45' E 000°27'1613.1
2015-Aug-20 02:20N 36°47' E 000°47'  

Dump ship's entire track history